Time;durP1;ratioP1;P1;durP2;ratioP2;P2;SDS_P1;SDS_P2;PMS_P1;PMS_P2;Temp;Humidity;BMP_temperature;BMP_pressure;BME280_temperature;BME280_humidity;BME280_pressure;Samples;Min_cycle;Max_cycle;Signal;HPM_P1;HPM_P2
2022/08/04 00:01:32;;;;;;;3.38;1.65;;;;;;;18.67;100.00;101336.94;5092429;28;20071;-35
2022/08/04 00:04:04;;;;;;;3.80;2.10;;;;;;;18.66;100.00;101338.94;5091909;28;20032;-32
2022/08/04 00:06:45;;;;;;;3.10;1.67;;;;;;;18.65;100.00;101340.09;5093015;28;20044;-37
2022/08/04 00:09:21;;;;;;;3.22;1.67;;;;;;;18.63;100.00;101341.59;5091508;28;20040;-39
2022/08/04 00:11:49;;;;;;;4.40;1.90;;;;;;;18.61;100.00;101335.47;5072226;28;20048;-32
2022/08/04 00:14:19;;;;;;;4.80;2.20;;;;;;;18.61;100.00;101333.47;5092105;28;20492;-32
2022/08/04 00:16:49;;;;;;;4.10;1.92;;;;;;;18.62;100.00;101325.81;5092274;28;20054;-33
2022/08/04 00:19:22;;;;;;;3.17;1.90;;;;;;;18.64;100.00;101323.47;5092007;28;20511;-34
2022/08/04 00:21:54;;;;;;;3.60;1.77;;;;;;;18.68;100.00;101324.47;5092021;28;20048;-36
2022/08/04 00:24:23;;;;;;;3.42;1.92;;;;;;;18.72;100.00;101322.59;5092282;28;20064;-31
2022/08/04 00:26:53;;;;;;;3.03;1.60;;;;;;;18.73;100.00;101322.25;5091935;28;20463;-37
2022/08/04 00:29:23;;;;;;;3.72;1.80;;;;;;;18.73;100.00;101325.09;5090329;28;20060;-32
2022/08/04 00:31:51;;;;;;;2.53;1.60;;;;;;;18.74;100.00;101326.75;5071828;28;20532;-39
2022/08/04 00:34:25;;;;;;;3.47;1.70;;;;;;;18.73;100.00;101327.09;5087718;28;20131;-31
2022/08/04 00:36:55;;;;;;;4.32;1.85;;;;;;;18.73;100.00;101319.44;5091322;28;20047;-32
2022/08/04 00:39:23;;;;;;;3.25;1.50;;;;;;;18.72;100.00;101323.44;5091762;28;20073;-38
2022/08/04 00:42:24;;;;;;;3.58;1.77;;;;;;;18.73;100.00;101327.91;5092195;28;20052;-31
2022/08/04 00:45:07;;;;;;;3.47;1.65;;;;;;;18.70;100.00;101324.94;5091519;28;20048;-39
2022/08/04 00:47:44;;;;;;;3.42;1.48;;;;;;;18.71;100.00;101321.78;5071423;28;20059;-32
2022/08/04 00:50:19;;;;;;;3.42;1.63;;;;;;;18.73;100.00;101325.09;5089060;28;20047;-37
2022/08/04 00:53:08;;;;;;;3.70;1.92;;;;;;;18.76;100.00;101326.41;5092213;28;20105;-32
2022/08/04 00:55:50;;;;;;;2.50;1.40;;;;;;;18.74;100.00;101318.28;5091818;28;20066;-29
2022/08/04 00:58:42;;;;;;;3.60;2.10;;;;;;;18.76;100.00;101315.94;5091647;28;20040;-40
2022/08/04 01:01:27;;;;;;;4.13;2.30;;;;;;;18.79;100.00;101320.88;5089287;28;20040;-35
2022/08/04 01:04:03;;;;;;;4.90;2.58;;;;;;;18.81;100.00;101312.03;5091238;28;20048;-31
2022/08/04 01:06:41;;;;;;;3.47;2.00;;;;;;;18.82;100.00;101320.19;5092200;28;20048;-33
2022/08/04 01:09:44;;;;;;;3.58;1.90;;;;;;;18.84;100.00;101317.00;5090143;28;20097;-40
2022/08/04 01:12:30;;;;;;;4.55;2.72;;;;;;;18.81;100.00;101317.69;5083471;28;20052;-31
2022/08/04 01:15:05;;;;;;;3.85;2.20;;;;;;;18.82;100.00;101314.53;5091290;28;20489;-33
2022/08/04 01:17:45;;;;;;;3.45;1.92;;;;;;;18.83;100.00;101316.19;5091827;28;20055;-31
2022/08/04 01:20:20;;;;;;;3.05;2.00;;;;;;;18.81;100.00;101312.88;5090830;28;20493;-32
2022/08/04 01:23:24;;;;;;;4.38;2.40;;;;;;;18.84;100.00;101311.38;5091465;28;20095;-36
2022/08/04 01:26:18;;;;;;;4.57;2.10;;;;;;;18.81;100.00;101310.03;5091069;28;20043;-32
2022/08/04 01:29:09;;;;;;;3.92;2.10;;;;;;;18.78;100.00;101296.63;5091362;28;20044;-32
2022/08/04 01:31:55;;;;;;;4.75;2.10;;;;;;;18.80;100.00;101299.91;5091610;28;20439;-34
2022/08/04 01:34:27;;;;;;;5.25;2.50;;;;;;;18.75;100.00;101283.16;5091446;28;20473;-36
2022/08/04 01:37:08;;;;;;;3.30;2.08;;;;;;;18.78;100.00;101292.97;5091190;28;20040;-32
2022/08/04 01:39:42;;;;;;;3.88;2.08;;;;;;;18.76;100.00;101286.81;5091070;28;20132;-35
2022/08/04 01:42:11;;;;;;;4.15;1.90;;;;;;;18.74;100.00;101292.00;5091215;28;20037;-36
2022/08/04 01:45:02;;;;;;;3.53;1.80;;;;;;;18.73;100.00;101296.00;5091529;28;20077;-35
2022/08/04 01:47:30;;;;;;;3.72;2.00;;;;;;;18.71;100.00;101296.34;5090037;28;20516;-35
2022/08/04 01:50:05;;;;;;;3.47;1.90;;;;;;;18.71;100.00;101287.84;5091126;28;20063;-33
2022/08/04 01:52:35;;;;;;;4.50;2.58;;;;;;;18.70;100.00;101291.03;5091719;28;20043;-39
2022/08/04 01:55:05;;;;;;;4.57;2.70;;;;;;;18.69;100.00;101292.19;5091090;28;20066;-41
2022/08/04 01:57:34;;;;;;;8.35;3.13;;;;;;;18.68;100.00;101290.53;5090845;28;20048;-35
2022/08/04 02:00:08;;;;;;;4.20;2.40;;;;;;;18.68;100.00;101282.06;5091484;28;20051;-33
2022/08/04 02:02:38;;;;;;;3.25;2.10;;;;;;;18.67;100.00;101280.41;5090958;28;20060;-31
2022/08/04 02:05:09;;;;;;;4.97;2.35;;;;;;;18.66;100.00;101290.03;5091292;28;20040;-31
2022/08/04 02:08:07;;;;;;;4.30;2.33;;;;;;;18.68;100.00;101291.34;5090454;28;20063;-32
2022/08/04 02:10:47;;;;;;;4.22;2.50;;;;;;;18.64;100.00;101298.88;5080804;28;20059;-31
2022/08/04 02:13:23;;;;;;;4.35;2.40;;;;;;;18.65;100.00;101299.69;5091287;28;20036;-32
2022/08/04 02:16:04;;;;;;;3.58;2.10;;;;;;;18.65;100.00;101294.88;5090825;28;20048;-33
2022/08/04 02:18:39;;;;;;;5.10;2.47;;;;;;;18.62;100.00;101286.25;5090276;28;20048;-37
2022/08/04 02:21:07;;;;;;;4.82;2.50;;;;;;;18.60;100.00;101283.75;5090828;28;20501;-38
2022/08/04 02:23:37;;;;;;;7.18;2.53;;;;;;;18.61;100.00;101284.59;5091353;28;20048;-34
2022/08/04 02:26:06;;;;;;;5.57;2.50;;;;;;;18.58;100.00;101283.28;5092834;28;20052;-32
2022/08/04 02:28:47;;;;;;;2.92;2.00;;;;;;;18.57;100.00;101282.44;5091951;28;20055;-40
2022/08/04 02:31:26;;;;;;;5.22;2.83;;;;;;;18.56;100.00;101279.94;5093229;28;20047;-36
2022/08/04 02:34:05;;;;;;;3.90;2.30;;;;;;;18.54;100.00;101283.13;5093289;28;20051;-41
2022/08/04 02:36:36;;;;;;;3.55;2.70;;;;;;;18.53;100.00;101280.63;5091740;28;20420;-39
2022/08/04 02:39:06;;;;;;;4.82;2.58;;;;;;;18.52;100.00;101268.50;5092186;28;20497;-40
2022/08/04 02:41:34;;;;;;;4.82;3.03;;;;;;;18.53;100.00;101272.16;5094498;28;20055;-35
2022/08/04 02:44:08;;;;;;;4.43;2.75;;;;;;;18.53;100.00;101275.81;5093596;28;20056;-33
2022/08/04 02:46:39;;;;;;;4.65;2.83;;;;;;;18.53;100.00;101278.63;5094118;28;20517;-38
2022/08/04 02:49:09;;;;;;;5.38;2.80;;;;;;;18.53;100.00;101272.97;5093427;28;20048;-35
2022/08/04 02:51:41;;;;;;;6.88;3.33;;;;;;;18.53;100.00;101266.50;5094011;28;20056;-32
2022/08/04 02:54:09;;;;;;;3.40;2.22;;;;;;;18.51;100.00;101271.66;5094035;28;20080;-33
2022/08/04 02:56:39;;;;;;;5.90;2.75;;;;;;;18.50;100.00;101270.00;5073410;28;20052;-33
2022/08/04 02:59:09;;;;;;;4.43;2.50;;;;;;;18.50;100.00;101272.84;5088259;28;20055;-37
2022/08/04 03:01:39;;;;;;;3.88;1.92;;;;;;;18.48;100.00;101263.88;5094218;28;20043;-33
2022/08/04 03:04:43;;;;;;;2.70;1.75;;;;;;;18.45;100.00;101265.38;5093422;28;20048;-36
2022/08/04 03:07:46;;;;;;;4.45;2.30;;;;;;;18.44;100.00;101263.72;5073531;28;20045;-34
2022/08/04 03:10:47;;;;;;;5.00;2.28;;;;;;;18.42;100.00;101268.06;5090308;28;20048;-34
2022/08/04 03:13:59;;;;;;;2.88;2.03;;;;;;;18.41;100.00;101264.41;5093330;28;20048;-36
2022/08/04 03:17:00;;;;;;;4.40;2.50;;;;;;;18.36;100.00;101273.09;5062186;28;20413;-36
2022/08/04 03:19:51;;;;;;;4.82;2.67;;;;;;;18.33;100.00;101261.66;5093002;28;20056;-33
2022/08/04 03:22:52;;;;;;;3.45;1.92;;;;;;;18.31;100.00;101256.34;5093398;28;20055;-33
2022/08/04 03:26:06;;;;;;;4.03;2.70;;;;;;;18.27;100.00;101254.53;5084878;28;20130;-40
2022/08/04 03:29:11;;;;;;;2.55;1.70;;;;;;;18.27;100.00;101254.53;5093118;28;20408;-36
2022/08/04 03:32:21;;;;;;;3.67;2.17;;;;;;;18.23;100.00;101252.38;5083092;28;20509;-40
2022/08/04 03:35:03;;;;;;;4.45;2.72;;;;;;;18.19;100.00;101245.75;5092502;28;20466;-35
2022/08/04 03:37:53;;;;;;;4.53;2.80;;;;;;;18.19;100.00;101254.22;5093544;28;20048;-39
2022/08/04 03:40:46;;;;;;;3.30;2.10;;;;;;;18.19;100.00;101250.56;5092515;28;20462;-35
2022/08/04 03:43:42;;;;;;;3.35;1.80;;;;;;;18.15;100.00;101249.63;5093180;28;20052;-41
2022/08/04 03:46:50;;;;;;;3.50;2.50;;;;;;;18.11;100.00;101245.81;5067704;28;20074;-36
2022/08/04 03:49:40;;;;;;;4.22;2.40;;;;;;;18.08;100.00;101244.50;5092907;28;20044;-34
2022/08/04 03:55:52;;;;;;;3.80;2.33;;;;;;;18.07;100.00;101242.84;5067828;28;20052;-35
2022/08/04 03:59:01;;;;;;;3.80;2.83;;;;;;;18.03;100.00;101235.38;5071569;28;20051;-40
2022/08/04 04:01:51;;;;;;;4.18;2.30;;;;;;;18.02;100.00;101245.03;5092165;28;20060;-36
2022/08/04 04:04:47;;;;;;;3.65;2.28;;;;;;;17.99;100.00;101245.69;5092663;28;20052;-33
2022/08/04 04:08:06;;;;;;;3.72;2.38;;;;;;;17.99;100.00;101252.19;5088831;28;20051;-29
2022/08/04 04:11:15;;;;;;;3.67;2.05;;;;;;;17.94;100.00;101243.09;5086287;28;20035;-40
2022/08/04 04:14:16;;;;;;;4.20;1.92;;;;;;;17.93;100.00;101247.09;5088167;28;20108;-37
2022/08/04 04:16:56;;;;;;;4.07;2.05;;;;;;;17.91;100.00;101250.25;5091233;28;20165;-33
2022/08/04 04:19:46;;;;;;;3.47;1.80;;;;;;;17.91;100.00;101247.41;5071420;28;20047;-35
2022/08/04 04:22:28;;;;;;;4.05;2.22;;;;;;;17.91;100.00;101247.41;5088097;28;20055;-33
2022/08/04 04:25:04;;;;;;;;;;;;;;;17.86;100.00;101247.59;5091720;28;20047;-34
2022/08/04 04:27:40;;;;;;;4.18;2.08;;;;;;;17.89;100.00;101252.56;5089621;28;19948;-38
2022/08/04 04:30:14;;;;;;;7.82;2.92;;;;;;;18.02;100.00;101256.31;5090938;28;20056;-32
2022/08/04 04:33:06;;;;;;;4.50;2.60;;;;;;;18.14;100.00;101251.63;5091147;28;20158;-34
2022/08/04 04:35:41;;;;;;;7.63;2.53;;;;;;;18.21;100.00;101253.88;5090857;28;20054;-41
2022/08/04 04:38:31;;;;;;;5.82;2.60;;;;;;;18.29;100.00;101258.66;5090193;28;20135;-38
2022/08/04 04:41:06;;;;;;;3.63;2.13;;;;;;;18.31;100.00;101255.50;5091133;28;20048;-38
2022/08/04 04:43:54;;;;;;;3.85;2.05;;;;;;;18.36;100.00;101255.31;5088171;28;20403;-38
2022/08/04 04:46:32;;;;;;;3.85;1.90;;;;;;;18.35;100.00;101257.31;5089629;28;20046;-37
2022/08/04 04:49:05;;;;;;;3.85;2.10;;;;;;;18.39;100.00;101254.59;5090295;28;20048;-37
2022/08/04 04:51:42;;;;;;;4.75;2.22;;;;;;;18.47;100.00;101259.38;5089800;28;20052;-34
2022/08/04 04:54:19;;;;;;;4.60;2.28;;;;;;;18.56;100.00;101260.16;5090989;28;20048;-37
2022/08/04 04:56:53;;;;;;;3.03;1.77;;;;;;;18.64;100.00;101261.28;5089893;28;20485;-39
2022/08/04 04:59:24;;;;;;;6.47;2.10;;;;;;;18.69;100.00;101249.78;5090794;28;20046;-36
2022/08/04 05:02:11;;;;;;;4.15;1.80;;;;;;;18.76;100.00;101256.56;5090661;28;20078;-33
2022/08/04 05:05:19;;;;;;;3.60;2.13;;;;;;;18.84;100.00;101252.81;5079759;28;20048;-37
2022/08/04 05:08:11;;;;;;;4.78;1.98;;;;;;;18.85;100.00;101256.47;5084840;28;20052;-36
2022/08/04 05:11:24;;;;;;;5.80;1.73;;;;;;;18.87;100.00;101262.59;5090006;28;20059;-38
2022/08/04 05:13:54;;;;;;;4.32;1.92;;;;;;;18.90;100.00;101265.56;5088018;28;20498;-38
2022/08/04 05:16:46;;;;;;;6.43;2.42;;;;;;;18.94;100.00;101262.88;5089348;28;20098;-33
2022/08/04 05:19:25;;;;;;;4.55;1.92;;;;;;;19.00;100.00;101264.31;5089485;28;20075;-32
2022/08/04 05:22:01;;;;;;;3.58;1.70;;;;;;;19.04;100.00;101259.63;5089441;28;20126;-34
2022/08/04 05:24:35;;;;;;;5.07;1.90;;;;;;;19.09;100.00;101262.25;5089758;28;20435;-34
2022/08/04 05:27:10;;;;;;;6.32;2.30;;;;;;;19.16;100.00;101256.03;5089884;28;20048;-36
2022/08/04 05:29:48;;;;;;;4.70;2.30;;;;;;;19.20;100.00;101259.78;5090248;28;20044;-34
2022/08/04 05:32:19;;;;;;;2.60;1.40;;;;;;;19.22;100.00;101263.09;5090237;28;20051;-34
2022/08/04 05:34:55;;;;;;;5.28;1.75;;;;;;;19.27;100.00;101262.91;5089800;28;20071;-32
2022/08/04 05:37:25;;;;;;;5.43;1.88;;;;;;;19.30;100.00;101259.38;5090745;28;20153;-36
2022/08/04 05:40:03;;;;;;;3.53;1.70;;;;;;;19.37;100.00;101264.47;5089879;28;20048;-31
2022/08/04 05:42:33;;;;;;;3.75;1.73;;;;;;;19.40;100.00;101261.75;5091496;28;20051;-32
2022/08/04 05:45:02;;;;;;;5.40;1.80;;;;;;;19.45;100.00;101270.03;5091256;28;20055;-33
2022/08/04 05:47:32;;;;;;;4.90;1.90;;;;;;;19.51;100.00;101267.84;5090911;28;20060;-33
2022/08/04 05:50:01;;;;;;;4.10;1.50;;;;;;;19.55;100.00;101258.31;5091484;28;20052;-34
2022/08/04 05:52:31;;;;;;;6.88;1.80;;;;;;;19.58;100.00;101268.91;5069619;28;20049;-33
2022/08/04 05:55:01;;;;;;;6.68;2.00;;;;;;;19.63;100.00;101261.38;5083241;28;20042;-36
2022/08/04 05:57:30;;;;;;;4.05;1.70;;;;;;;19.66;100.00;101266.34;5089890;28;20059;-32
2022/08/04 06:00:00;;;;;;;3.78;1.58;;;;;;;19.71;100.00;101263.28;5093787;28;20046;-38
2022/08/04 06:02:52;;;;;;;5.18;2.08;;;;;;;19.74;100.00;101266.25;5094525;28;20089;-33
2022/08/04 06:05:20;;;;;;;;;;;;;;;19.76;100.00;101269.56;5094958;28;20052;-33
2022/08/04 06:07:48;;;;;;;4.60;1.67;;;;;;;19.78;100.00;101269.22;5094062;28;20411;-41
2022/08/04 06:10:39;;;;;;;4.28;1.63;;;;;;;19.87;100.00;101270.75;5094578;28;20497;-35
2022/08/04 06:13:11;;;;;;;5.10;1.67;;;;;;;19.94;100.00;101273.00;5095391;28;20408;-40
2022/08/04 06:16:01;;;;;;;6.53;1.83;;;;;;;19.97;100.00;101271.47;5094640;28;20040;-38
2022/08/04 06:18:31;;;;;;;4.32;1.60;;;;;;;20.03;100.00;101273.69;5095239;28;20069;-34
2022/08/04 06:21:23;;;;;;;4.97;1.80;;;;;;;20.11;100.00;101275.59;5093401;28;20117;-34
2022/08/04 06:23:52;;;;;;;4.22;1.77;;;;;;;20.19;100.00;101274.63;5095136;28;20043;-32
2022/08/04 06:26:34;;;;;;;7.97;1.73;;;;;;;20.26;100.00;101279.72;5094695;28;20044;-33
2022/08/04 06:29:03;;;;;;;;;;;;;;;20.27;100.00;101275.72;5095168;28;20052;-33
2022/08/04 06:31:45;;;;;;;4.03;1.30;;;;;;;20.35;100.00;101274.78;5094444;28;19924;-35
2022/08/04 06:34:34;;;;;;;3.80;1.60;;;;;;;20.51;100.00;101270.06;5094700;28;20051;-34
2022/08/04 06:37:03;;;;;;;4.50;1.70;;;;;;;20.72;100.00;101277.59;5094242;28;20066;-38
2022/08/04 06:39:33;;;;;;;3.97;1.83;;;;;;;21.02;100.00;101278.06;5094933;28;20048;-37
2022/08/04 06:42:03;;;;;;;4.10;1.45;;;;;;;21.42;100.00;101283.72;5094092;28;20044;-33
2022/08/04 06:44:53;;;;;;;4.28;1.92;;;;;;;21.94;100.00;101278.69;5093580;28;20142;-34
2022/08/04 06:47:23;;;;;;;4.53;1.33;;;;;;;22.52;100.00;101278.94;5094557;28;20127;-37
2022/08/04 06:49:53;;;;;;;7.15;1.60;;;;;;;23.20;100.00;101294.69;5094042;28;20044;-35
2022/08/04 06:52:41;;;;;;;5.00;1.40;;;;;;;23.95;100.00;101295.00;5093602;28;20048;-39
2022/08/04 06:55:09;;;;;;;5.90;1.50;;;;;;;24.49;100.00;101304.50;5094676;28;20048;-36
2022/08/04 06:57:40;;;;;;;6.40;1.40;;;;;;;24.93;100.00;101299.03;5093834;28;20160;-33
2022/08/04 07:00:11;;;;;;;3.72;1.13;;;;;;;25.44;100.00;101296.47;5094705;28;20054;-34
2022/08/04 07:02:43;;;;;;;3.20;1.10;;;;;;;26.01;100.00;101295.06;5093544;28;20539;-34
2022/08/04 07:05:12;;;;;;;2.50;1.10;;;;;;;26.57;100.00;101299.66;5094466;28;20442;-34
2022/08/04 07:07:40;;;;;;;5.07;1.33;;;;;;;27.13;100.00;101300.44;5092997;28;20072;-39
2022/08/04 07:10:27;;;;;;;4.63;1.23;;;;;;;27.69;100.00;101303.53;5092665;28;20431;-33
2022/08/04 07:12:57;;;;;;;4.40;1.35;;;;;;;28.23;99.03;101301.59;5093548;28;20048;-33
2022/08/04 07:15:25;;;;;;;3.42;1.27;;;;;;;28.55;92.97;101303.66;5094234;28;20055;-33
2022/08/04 07:17:58;;;;;;;5.10;1.20;;;;;;;28.73;89.60;101310.19;5093318;28;20043;-36
2022/08/04 07:20:27;;;;;;;4.55;1.20;;;;;;;28.95;88.44;101306.06;5073667;28;20044;-33
2022/08/04 07:23:03;;;;;;;4.65;1.10;;;;;;;29.31;85.47;101320.31;5089554;28;20039;-33
2022/08/04 07:25:33;;;;;;;4.28;1.00;;;;;;;29.37;83.01;101321.53;5093068;28;20516;-36
2022/08/04 07:28:23;;;;;;;3.35;1.00;;;;;;;29.33;81.89;101315.78;5093989;28;20075;-33
2022/08/04 07:30:53;;;;;;;4.38;1.17;;;;;;;29.09;82.21;101317.50;5093348;28;20094;-35
2022/08/04 07:33:22;;;;;;;3.20;1.00;;;;;;;29.08;84.24;101321.63;5093075;28;20457;-34
2022/08/04 07:35:52;;;;;;;3.92;1.25;;;;;;;29.38;79.83;101323.13;5093481;28;20154;-34
2022/08/04 07:38:39;;;;;;;4.53;1.30;;;;;;;29.38;78.80;101323.13;5092939;28;20059;-37
2022/08/04 07:41:22;;;;;;;4.47;1.15;;;;;;;29.41;77.89;101325.22;5073153;28;20048;-33
2022/08/04 07:44:07;;;;;;;4.38;1.00;;;;;;;29.44;77.73;101321.50;5091779;28;20047;-37
2022/08/04 07:46:35;;;;;;;2.75;0.90;;;;;;;29.59;76.53;101322.25;5092723;28;20467;-34
2022/08/04 07:49:04;;;;;;;3.08;0.98;;;;;;;29.68;76.26;101311.13;5092948;28;20048;-35
2022/08/04 07:51:35;;;;;;;3.35;1.00;;;;;;;29.95;74.14;101328.63;5093252;28;20056;-36
2022/08/04 07:54:04;;;;;;;4.67;1.23;;;;;;;30.11;72.79;101326.09;5092394;28;20042;-35
2022/08/04 07:56:32;;;;;;;3.30;0.93;;;;;;;30.35;71.58;101322.19;5092915;28;20286;-40
2022/08/04 07:59:01;;;;;;;3.78;1.05;;;;;;;30.68;69.72;101328.50;5092542;28;20044;-33
2022/08/04 08:01:30;;;;;;;3.92;1.00;;;;;;;31.07;65.93;101333.88;5092965;28;20048;-33
2022/08/04 08:04:00;;;;;;;3.55;0.85;;;;;;;30.91;64.97;101328.69;5093024;28;20044;-33
2022/08/04 08:06:29;;;;;;;2.92;1.00;;;;;;;30.65;64.45;101332.25;5092439;28;20054;-39
2022/08/04 08:09:08;;;;;;;2.80;0.90;;;;;;;30.59;65.37;101334.75;5092452;28;20044;-33
2022/08/04 08:11:42;;;;;;;3.20;0.98;;;;;;;30.93;64.47;101322.50;5092672;28;20198;-34
2022/08/04 08:14:30;;;;;;;3.28;1.00;;;;;;;31.35;61.88;101313.38;5092289;28;20116;-36
2022/08/04 08:17:01;;;;;;;4.10;1.17;;;;;;;31.88;59.62;101323.41;5092536;28;20075;-34
2022/08/04 08:19:29;;;;;;;4.82;1.10;;;;;;;32.33;57.13;101320.25;5092417;28;20489;-38
2022/08/04 08:21:58;;;;;;;4.25;0.90;;;;;;;32.68;53.40;101321.69;5091620;28;20054;-33
2022/08/04 08:24:28;;;;;;;3.47;0.88;;;;;;;32.87;53.17;101320.97;5092588;28;20069;-33
2022/08/04 08:26:57;;;;;;;2.88;1.10;;;;;;;33.17;52.49;101323.66;5092206;28;20048;-42
2022/08/04 08:29:26;;;;;;;3.75;1.02;;;;;;;33.47;49.88;101331.34;5092018;28;20058;-34
2022/08/04 08:31:54;;;;;;;3.60;1.10;;;;;;;33.72;49.00;101316.31;5092365;28;20080;-42
2022/08/04 08:34:31;;;;;;;2.85;0.90;;;;;;;33.94;48.18;101330.34;5091171;28;20143;-36
2022/08/04 08:37:04;;;;;;;2.83;0.87;;;;;;;34.13;47.31;101326.56;5092078;28;20079;-35
2022/08/04 08:39:38;;;;;;;2.38;0.80;;;;;;;34.36;46.25;101323.53;5092116;28;20044;-35
2022/08/04 08:42:20;;;;;;;3.63;1.02;;;;;;;34.62;44.22;101323.69;5091762;28;20044;-34
2022/08/04 08:45:21;;;;;;;2.58;1.10;;;;;;;34.73;42.67;101325.03;5091591;28;20131;-35
2022/08/04 08:48:07;;;;;;;2.53;0.95;;;;;;;34.71;44.66;101326.78;5092187;28;20060;-33
2022/08/04 08:51:02;;;;;;;2.40;0.90;;;;;;;34.93;41.82;101321.22;5091672;28;20048;-37
2022/08/04 08:53:52;;;;;;;3.40;0.90;;;;;;;35.15;42.42;101325.97;5091854;28;20044;-34
2022/08/04 08:56:31;;;;;;;6.35;0.98;;;;;;;35.17;42.80;101323.41;5091246;28;20043;-35
2022/08/04 08:59:26;;;;;;;2.03;0.80;;;;;;;35.46;41.79;101320.53;5091745;28;20052;-37
2022/08/04 09:02:33;;;;;;;4.22;1.08;;;;;;;35.34;37.64;101326.31;5090606;28;20093;-34
2022/08/04 09:05:24;;;;;;;2.80;0.82;;;;;;;35.13;40.32;101324.81;5091302;28;20058;-38
2022/08/04 09:08:20;;;;;;;3.20;0.90;;;;;;;35.29;41.05;101335.56;5082453;28;20122;-38
2022/08/04 09:10:50;;;;;;;2.70;1.00;;;;;;;35.48;40.64;101334.59;5091216;28;20409;-35
2022/08/04 09:13:25;;;;;;;3.83;1.20;;;;;;;35.55;39.28;101343.91;5091454;28;20105;-34
2022/08/04 09:15:59;;;;;;;2.83;0.85;;;;;;;35.37;39.80;101334.09;5091671;28;20040;-39
2022/08/04 09:18:34;;;;;;;3.42;0.90;;;;;;;35.32;39.25;101341.28;5091188;28;20067;-37
2022/08/04 09:21:10;;;;;;;2.60;0.82;;;;;;;35.06;40.68;101349.03;5091627;28;20127;-36
2022/08/04 09:23:51;;;;;;;5.32;1.05;;;;;;;35.30;39.88;101340.09;5091281;28;20052;-35
2022/08/04 09:26:23;;;;;;;3.85;1.20;;;;;;;35.61;39.00;101338.31;5091008;28;20051;-40
2022/08/04 09:28:59;;;;;;;3.00;0.90;;;;;;;35.50;39.34;101344.47;5091800;28;20054;-39
2022/08/04 09:31:33;;;;;;;3.67;0.90;;;;;;;35.42;39.82;101350.94;5091001;28;20056;-40
2022/08/04 09:34:33;;;;;;;3.55;0.90;;;;;;;35.66;40.21;101352.28;5095848;28;20051;-39
2022/08/04 09:37:20;;;;;;;2.20;0.80;;;;;;;35.93;39.70;101351.06;5095442;28;20563;-36
2022/08/04 09:40:03;;;;;;;4.20;1.08;;;;;;;36.01;38.40;101355.38;5095587;28;20051;-37
2022/08/04 09:42:38;;;;;;;2.53;0.80;;;;;;;35.79;39.04;101358.13;5095345;28;20493;-41
2022/08/04 09:45:16;;;;;;;3.40;0.90;;;;;;;35.70;38.87;101361.69;5094889;28;20509;-36
2022/08/04 09:47:59;;;;;;;3.08;1.08;;;;;;;35.65;39.85;101356.44;5094857;28;20505;-37
2022/08/04 09:50:33;;;;;;;3.35;0.90;;;;;;;35.60;39.38;101359.09;5075555;28;20036;-40
2022/08/04 09:53:27;;;;;;;2.63;1.00;;;;;;;35.38;38.54;101353.09;5090398;28;20139;-34
2022/08/04 09:56:03;;;;;;;3.30;1.00;;;;;;;35.36;39.58;101361.50;5073959;28;20052;-40
2022/08/04 09:58:44;;;;;;;2.80;0.85;;;;;;;35.33;39.41;101351.59;5093006;28;20134;-37
2022/08/04 10:01:17;;;;;;;2.67;0.82;;;;;;;35.33;40.25;101362.41;5095292;28;20032;-34
2022/08/04 10:03:52;;;;;;;2.00;0.70;;;;;;;35.29;40.32;101361.69;5094963;28;20067;-38
2022/08/04 10:06:45;;;;;;;3.80;1.00;;;;;;;35.15;38.54;101357.91;5094881;28;20051;-35
2022/08/04 10:09:30;;;;;;;2.55;0.90;;;;;;;35.05;40.33;101364.78;5094304;28;20056;-36
2022/08/04 10:12:16;;;;;;;2.10;0.70;;;;;;;35.03;39.91;101367.34;5075945;28;20049;-38
2022/08/04 10:14:52;;;;;;;3.08;1.00;;;;;;;34.85;40.28;101362.03;5092893;28;20032;-36
2022/08/04 10:17:31;;;;;;;2.97;0.90;;;;;;;34.68;40.97;101371.16;5094999;28;20048;-43
2022/08/04 10:20:08;;;;;;;3.00;0.95;;;;;;;34.71;41.04;101376.06;5094420;28;20040;-38
2022/08/04 10:22:39;;;;;;;3.35;1.17;;;;;;;34.91;41.54;101371.00;5094569;28;20051;-37
2022/08/04 10:25:42;;;;;;;1.98;0.90;;;;;;;35.11;40.70;101368.78;5085269;28;20169;-41
2022/08/04 10:28:37;;;;;;;4.63;1.20;;;;;;;34.83;41.23;101376.16;5093956;28;20043;-38
2022/08/04 10:31:13;;;;;;;3.42;1.10;;;;;;;34.66;41.64;101370.81;5095005;28;20062;-38
2022/08/04 10:33:46;;;;;;;2.85;0.88;;;;;;;34.45;42.29;101381.66;5094121;28;20048;-36
2022/08/04 10:36:21;;;;;;;2.88;1.20;;;;;;;34.22;41.53;101381.78;5094675;28;20073;-38
2022/08/04 10:38:56;;;;;;;3.03;1.00;;;;;;;34.12;42.61;101371.28;5094600;28;20047;-44
2022/08/04 10:41:30;;;;;;;3.08;0.98;;;;;;;34.36;41.96;101372.81;5094137;28;20046;-37
2022/08/04 10:44:12;;;;;;;2.40;0.90;;;;;;;34.47;41.24;101376.25;5094071;28;20547;-34
2022/08/04 10:46:47;;;;;;;3.47;1.08;;;;;;;34.66;40.77;101367.91;5094511;28;20055;-35
2022/08/04 10:49:24;;;;;;;3.10;1.00;;;;;;;34.88;41.29;101377.69;5093510;28;20056;-35
2022/08/04 10:51:59;;;;;;;3.30;0.75;;;;;;;34.99;40.66;101374.50;5094409;28;20044;-35
2022/08/04 10:54:32;;;;;;;3.28;1.05;;;;;;;34.89;40.40;101382.22;5094221;28;20078;-38
2022/08/04 10:57:06;;;;;;;4.10;0.73;;;;;;;34.74;40.99;101378.88;5093729;28;20056;-35
2022/08/04 10:59:56;;;;;;;3.90;1.00;;;;;;;34.63;41.17;101384.13;5094018;28;20036;-37
2022/08/04 11:02:53;;;;;;;3.15;0.95;;;;;;;34.51;41.88;101397.25;5093809;28;20068;-40
2022/08/04 11:05:30;;;;;;;2.47;0.80;;;;;;;34.42;43.20;101394.16;5093556;28;20076;-36
2022/08/04 11:08:03;;;;;;;3.90;1.00;;;;;;;34.59;43.24;101394.16;5094026;28;20051;-38
2022/08/04 11:10:44;;;;;;;2.75;0.88;;;;;;;34.89;42.19;101396.75;5093201;28;20507;-35
2022/08/04 11:13:17;;;;;;;3.88;1.00;;;;;;;34.79;41.95;101398.63;5073817;28;20048;-36
2022/08/04 11:16:02;;;;;;;3.63;1.17;;;;;;;34.80;42.33;101399.44;5089962;28;20508;-40
2022/08/04 11:18:40;;;;;;;2.38;0.90;;;;;;;34.92;41.83;101406.63;5093544;28;20082;-44
2022/08/04 11:21:14;;;;;;;2.90;1.00;;;;;;;34.93;41.79;101405.34;5093716;28;20066;-36
2022/08/04 11:23:53;;;;;;;2.45;1.00;;;;;;;34.96;41.00;101413.97;5093522;28;20059;-36
2022/08/04 11:26:28;;;;;;;3.47;1.17;;;;;;;34.95;41.42;101406.53;5093282;28;20048;-40
2022/08/04 11:29:05;;;;;;;3.30;1.20;;;;;;;35.12;40.53;101422.63;5093902;28;20052;-37
2022/08/04 11:31:40;;;;;;;2.92;0.98;;;;;;;35.06;41.51;101418.66;5092365;28;20054;-35
2022/08/04 11:34:18;;;;;;;3.92;1.38;;;;;;;34.74;40.69;101422.38;5093785;28;20044;-41
2022/08/04 11:36:52;;;;;;;2.95;0.90;;;;;;;34.53;41.36;101420.81;5093223;28;20044;-34
2022/08/04 11:39:27;;;;;;;2.97;1.00;;;;;;;34.40;41.93;101428.56;5093347;28;20047;-38
2022/08/04 11:42:06;;;;;;;3.58;1.08;;;;;;;34.16;42.15;101430.78;5093553;28;20485;-35
2022/08/04 11:44:41;;;;;;;3.33;1.05;;;;;;;34.01;42.81;101428.63;5092854;28;20048;-37
2022/08/04 11:47:20;;;;;;;3.63;1.00;;;;;;;33.85;42.64;101433.09;5092630;28;20477;-35
2022/08/04 11:49:55;;;;;;;2.80;1.10;;;;;;;33.60;43.36;101431.94;5093183;28;20052;-42
2022/08/04 11:52:28;;;;;;;3.72;1.10;;;;;;;33.53;44.09;101436.66;5092255;28;20082;-38
2022/08/04 11:54:58;;;;;;;3.40;1.10;;;;;;;33.60;44.40;101426.97;5092571;28;20500;-34
2022/08/04 11:57:26;;;;;;;;;;;;;;;33.34;44.75;101431.66;5093292;28;20513;-37
2022/08/04 12:00:09;;;;;;;2.63;1.00;;;;;;;33.37;45.73;101445.25;5092427;28;19920;-38
2022/08/04 12:02:58;;;;;;;3.35;1.20;;;;;;;33.52;45.12;101455.28;5092638;28;20052;-37
2022/08/04 12:05:30;;;;;;;2.70;0.93;;;;;;;33.49;45.82;101455.34;5092620;28;20090;-34
2022/08/04 12:08:21;;;;;;;3.47;1.10;;;;;;;33.40;45.56;101455.09;5092520;28;20084;-41
2022/08/04 12:11:01;;;;;;;4.72;1.35;;;;;;;33.32;46.27;101459.41;5092503;28;20469;-35
2022/08/04 12:13:39;;;;;;;5.03;1.40;;;;;;;33.39;45.80;101468.75;5091835;28;20142;-40
2022/08/04 12:16:15;;;;;;;2.92;1.10;;;;;;;33.44;45.22;101468.22;5092742;28;20373;-34
2022/08/04 12:18:51;;;;;;;3.03;1.23;;;;;;;33.44;45.48;101467.41;5089905;28;20130;-35
2022/08/04 12:21:29;;;;;;;4.55;1.40;;;;;;;33.51;45.63;101471.00;5091562;28;20105;-35